Time;durP1;ratioP1;P1;durP2;ratioP2;P2;SDS_P1;SDS_P2;PMS_P1;PMS_P2;Temp;Humidity;BMP_temperature;BMP_pressure;BME280_temperature;BME280_humidity;BME280_pressure;Samples;Min_cycle;Max_cycle;Signal;HPM_P1;HPM_P2
2022/07/16 00:01:26;;;;;;;8.60;4.20;;;;;;;9.85;77.50;99181.03;2170042;81;20969;-82
2022/07/16 00:04:25;;;;;;;7.83;4.13;;;;;;;9.87;77.61;99175.84;2170702;81;21004;-81
2022/07/16 00:07:25;;;;;;;9.53;4.67;;;;;;;9.88;77.51;99179.78;2170290;81;21365;-81
2022/07/16 00:10:26;;;;;;;9.07;4.47;;;;;;;9.85;77.45;99173.20;2170696;81;20948;-81
2022/07/16 00:13:26;;;;;;;6.77;4.20;;;;;;;9.83;77.56;99163.59;2170880;81;20925;-82
2022/07/16 00:16:27;;;;;;;8.00;4.20;;;;;;;9.82;77.61;99166.62;2170785;81;20917;-81
2022/07/16 00:19:27;;;;;;;9.77;4.40;;;;;;;9.80;77.53;99164.84;2171075;81;21332;-82
2022/07/16 00:22:27;;;;;;;12.17;4.70;;;;;;;9.74;77.61;99160.38;2171124;81;21025;-81
2022/07/16 00:25:28;;;;;;;8.00;4.27;;;;;;;9.70;77.55;99159.87;2171089;81;20984;-81
2022/07/16 00:28:28;;;;;;;9.37;4.47;;;;;;;9.66;77.67;99159.34;2170989;81;21326;-82
2022/07/16 00:31:29;;;;;;;8.00;4.03;;;;;;;9.63;77.67;99154.50;2170880;81;20925;-82
2022/07/16 00:34:29;;;;;;;11.73;4.17;;;;;;;9.64;77.85;99156.26;2171048;81;21000;-82
2022/07/16 00:37:29;;;;;;;6.30;3.60;;;;;;;9.59;77.64;99152.25;2170722;81;20949;-83
2022/07/16 00:40:30;;;;;;;8.73;3.80;;;;;;;9.56;77.51;99157.41;2170737;81;20960;-83
2022/07/16 00:43:30;;;;;;;8.07;4.40;;;;;;;9.46;77.48;99158.91;2170914;81;21020;-84
2022/07/16 00:46:31;;;;;;;8.13;3.47;;;;;;;9.42;77.60;99159.69;2171069;81;21356;-82
2022/07/16 00:49:31;;;;;;;6.20;3.60;;;;;;;9.37;77.49;99163.04;2170796;82;21012;-82
2022/07/16 00:52:31;;;;;;;10.87;4.00;;;;;;;9.29;77.31;99157.66;2171131;81;20909;-82
2022/07/16 00:55:32;;;;;;;9.50;4.23;;;;;;;9.18;77.34;99157.84;2170576;81;20978;-81
2022/07/16 00:58:32;;;;;;;7.80;3.40;;;;;;;9.11;77.38;99156.83;2171047;81;20988;-82
2022/07/16 01:01:33;;;;;;;5.23;3.40;;;;;;;9.02;77.23;99156.63;2170573;81;21353;-81
2022/07/16 01:04:33;;;;;;;5.07;3.43;;;;;;;8.98;77.25;99150.89;2170694;81;21024;-81
2022/07/16 01:07:33;;;;;;;5.30;3.53;;;;;;;8.91;77.29;99152.48;2170799;81;20942;-82
2022/07/16 01:10:34;;;;;;;76.83;49.57;;;;;;;8.88;77.37;99143.72;2170755;81;20953;-81
2022/07/16 01:13:36;;;;;;;138.50;15.33;;;;;;;8.84;77.41;99147.97;2161506;82;20942;-82
2022/07/16 01:16:37;;;;;;;8.50;4.63;;;;;;;8.79;77.38;99143.08;2170601;81;20965;-82
2022/07/16 01:19:37;;;;;;;52.67;8.47;;;;;;;8.75;77.36;99145.58;2170508;81;21276;-83
2022/07/16 01:22:37;;;;;;;9.27;3.67;;;;;;;8.70;77.32;99148.48;2170713;81;20957;-82
2022/07/16 01:25:38;;;;;;;7.57;3.60;;;;;;;8.62;77.27;99137.86;2170451;81;21013;-82
2022/07/16 01:28:38;;;;;;;7.13;3.20;;;;;;;8.57;77.36;99139.47;2170487;82;21360;-82
2022/07/16 01:31:39;;;;;;;4.53;3.27;;;;;;;8.51;77.31;99133.70;2170385;81;20980;-83
2022/07/16 01:34:39;;;;;;;9.17;3.80;;;;;;;8.51;77.57;99130.22;2170809;81;21065;-81
2022/07/16 01:37:40;;;;;;;9.70;3.60;;;;;;;8.47;77.49;99130.98;2170837;81;21377;-82
2022/07/16 01:40:40;;;;;;;6.83;3.60;;;;;;;8.42;77.66;99129.99;2171014;81;20957;-82
2022/07/16 01:43:41;;;;;;;4.10;2.97;;;;;;;8.39;77.61;99132.09;2171161;81;20973;-83
2022/07/16 01:46:41;;;;;;;9.37;3.97;;;;;;;8.35;77.50;99134.16;2171140;82;21301;-82
2022/07/16 01:49:41;;;;;;;5.57;3.00;;;;;;;8.39;77.79;99140.32;2170884;81;20980;-82
2022/07/16 01:52:42;;;;;;;6.57;3.00;;;;;;;8.41;77.84;99143.84;2171096;81;21016;-82
2022/07/16 01:55:42;;;;;;;8.67;3.10;;;;;;;8.46;78.06;99145.72;2170849;81;21377;-83
2022/07/16 01:58:42;;;;;;;7.37;3.70;;;;;;;8.54;78.20;99143.30;2170873;81;20893;-83
2022/07/16 02:01:43;;;;;;;11.70;5.63;;;;;;;8.63;78.26;99143.52;2170729;81;21020;-83
2022/07/16 02:04:43;;;;;;;6.73;3.70;;;;;;;8.73;78.46;99145.53;2170655;81;20985;-80
2022/07/16 02:07:44;;;;;;;6.40;3.10;;;;;;;8.84;78.47;99140.16;2170687;81;21281;-81
2022/07/16 02:10:44;;;;;;;5.60;3.27;;;;;;;8.95;78.58;99135.20;2171083;81;20965;-82
2022/07/16 02:13:45;;;;;;;6.33;3.30;;;;;;;9.04;78.57;99130.63;2171544;82;20918;-82
2022/07/16 02:16:45;;;;;;;19.03;3.73;;;;;;;9.12;78.64;99134.28;2171085;81;20917;-83
2022/07/16 02:19:45;;;;;;;5.27;2.97;;;;;;;9.17;78.50;99133.95;2171330;81;20990;-82
2022/07/16 02:22:46;;;;;;;74.83;47.63;;;;;;;9.22;78.56;99133.63;2171212;81;20976;-82
2022/07/16 02:25:46;;;;;;;12.27;7.30;;;;;;;9.28;78.67;99123.77;2170882;81;21004;-82
2022/07/16 02:28:47;;;;;;;9.00;5.00;;;;;;;9.36;78.50;99121.78;2170841;81;21336;-84
2022/07/16 02:31:47;;;;;;;7.60;3.90;;;;;;;9.40;78.58;99119.69;2171168;81;20996;-83
2022/07/16 02:34:48;;;;;;;6.50;3.30;;;;;;;9.48;78.63;99118.13;2170944;81;20944;-81
2022/07/16 02:37:48;;;;;;;41.73;5.47;;;;;;;9.51;78.68;99111.67;2170742;82;20937;-83
2022/07/16 02:40:48;;;;;;;8.50;3.50;;;;;;;9.56;78.68;99117.01;2170443;81;21612;-84
2022/07/16 02:43:49;;;;;;;280.57;19.67;;;;;;;9.58;78.75;99115.31;2170590;82;21368;-83
2022/07/16 02:46:49;;;;;;;10.23;3.83;;;;;;;9.62;78.83;99114.95;2170358;81;20953;-84
2022/07/16 02:49:50;;;;;;;6.27;3.30;;;;;;;9.65;78.91;99117.19;2170867;81;20941;-84
2022/07/16 02:52:50;;;;;;;8.27;3.47;;;;;;;9.73;79.03;99118.64;2171139;82;21388;-83
2022/07/16 02:55:50;;;;;;;6.40;3.20;;;;;;;9.81;79.13;99115.34;2170766;81;20952;-83
2022/07/16 02:58:51;;;;;;;5.33;3.10;;;;;;;9.88;79.05;99117.63;2170341;81;20945;-82
2022/07/16 03:01:51;;;;;;;18.90;4.20;;;;;;;9.94;79.04;99120.36;2171349;81;20989;-82
2022/07/16 03:04:52;;;;;;;10.23;3.80;;;;;;;10.00;79.18;99116.56;2171742;81;20941;-82
2022/07/16 03:07:52;;;;;;;5.90;3.53;;;;;;;10.06;79.15;99120.58;2171626;81;21312;-82
2022/07/16 03:10:53;;;;;;;5.90;4.73;;;;;;;10.12;79.28;99117.20;2171579;81;20950;-81
2022/07/16 03:13:53;;;;;;;114.17;84.23;;;;;;;10.17;79.25;99117.73;2171997;81;20924;-82
2022/07/16 03:16:53;;;;;;;12.03;8.20;;;;;;;10.24;79.55;99118.76;2171679;81;21254;-82
2022/07/16 03:19:54;;;;;;;11.97;5.37;;;;;;;10.32;79.55;99119.77;2171693;80;20941;-81
2022/07/16 03:22:54;;;;;;;7.33;4.40;;;;;;;10.41;79.46;99120.38;2171609;81;20941;-83
2022/07/16 03:25:55;;;;;;;8.00;3.97;;;;;;;10.50;79.38;99115.31;2171384;81;21331;-81
2022/07/16 03:28:55;;;;;;;11.00;4.10;;;;;;;10.60;79.51;99113.73;2171409;82;20917;-81
2022/07/16 03:31:55;;;;;;;107.57;8.40;;;;;;;10.71;79.46;99117.39;2171211;81;20960;-82
2022/07/16 03:34:56;;;;;;;8.07;3.67;;;;;;;10.78;79.36;99117.94;2170748;82;20921;-82
2022/07/16 03:41:15;;;;;;;4.10;3.17;;;;;;;10.97;79.24;99112.55;2171109;82;20945;-82
2022/07/16 03:44:15;;;;;;;42.97;28.57;;;;;;;11.04;79.24;99110.48;2170918;81;20937;-81
2022/07/16 03:47:16;;;;;;;20.00;13.10;;;;;;;11.13;79.24;99111.48;2171295;81;20957;-81
2022/07/16 03:50:16;;;;;;;7.33;4.90;;;;;;;11.24;79.23;99110.33;2170885;81;20925;-81
2022/07/16 03:53:17;;;;;;;8.60;3.80;;;;;;;11.33;79.13;99106.98;2170653;82;20965;-81
2022/07/16 03:56:17;;;;;;;68.23;6.40;;;;;;;11.41;79.03;99111.45;2170636;81;20929;-81
2022/07/16 03:59:17;;;;;;;8.90;3.57;;;;;;;11.52;78.77;99115.51;2170972;81;20913;-81
2022/07/16 04:02:18;;;;;;;4.33;3.30;;;;;;;11.63;78.55;99109.09;2171024;81;20925;-82
2022/07/16 04:05:18;;;;;;;16.23;4.07;;;;;;;11.73;78.48;99105.73;2171173;81;20949;-81
2022/07/16 04:08:19;;;;;;;9.13;3.98;;;;;;;11.88;78.13;99096.78;2171365;81;21305;-81
2022/07/16 04:11:19;;;;;;;54.18;32.33;;;;;;;12.05;78.04;99093.03;2171289;81;20936;-81
2022/07/16 04:14:19;;;;;;;8.70;5.12;;;;;;;12.20;77.75;99106.29;2170894;81;20921;-81
2022/07/16 04:17:20;;;;;;;6.97;3.75;;;;;;;12.33;77.50;99109.46;2170498;80;21363;-82
2022/07/16 04:20:20;;;;;;;246.80;19.65;;;;;;;12.47;77.86;99100.42;2171414;81;20937;-81
2022/07/16 04:23:21;;;;;;;9.08;3.90;;;;;;;12.64;76.75;99104.48;2170139;81;20952;-82
2022/07/16 04:26:21;;;;;;;45.38;5.90;;;;;;;12.85;77.44;99103.76;2169789;81;20945;-81
2022/07/16 04:29:21;;;;;;;17.87;3.92;;;;;;;12.99;76.55;99109.97;2169623;81;21649;-81
2022/07/16 04:32:22;;;;;;;8.73;3.52;;;;;;;13.12;76.29;99105.27;2168896;81;20997;-81
2022/07/16 04:35:22;;;;;;;11.93;3.92;;;;;;;13.22;74.08;99104.92;2169590;82;20965;-81
2022/07/16 04:38:23;;;;;;;5.75;3.70;;;;;;;13.37;72.03;99111.13;2169982;80;21608;-81
2022/07/16 04:41:23;;;;;;;7.40;3.77;;;;;;;13.65;72.48;99102.94;2169386;81;20953;-81
2022/07/16 04:44:23;;;;;;;8.45;3.98;;;;;;;13.95;70.31;99091.69;2169298;81;20917;-81
2022/07/16 04:47:24;;;;;;;11.30;3.77;;;;;;;14.08;69.68;99091.70;2169012;81;20977;-81
2022/07/16 04:50:24;;;;;;;11.73;3.95;;;;;;;14.19;68.52;99097.41;2168816;81;21569;-80
2022/07/16 04:53:25;;;;;;;7.47;3.60;;;;;;;14.31;68.17;99100.05;2169630;81;20909;-80
2022/07/16 04:56:25;;;;;;;7.45;2.95;;;;;;;14.40;67.66;99100.49;2169096;81;20956;-78
2022/07/16 04:59:25;;;;;;;7.25;3.77;;;;;;;14.48;67.39;99101.84;2169782;81;20925;-79
2022/07/16 05:05:44;;;;;;;6.55;4.40;;;;;;;14.77;66.45;99099.23;2169741;81;20961;-80
2022/07/16 05:08:45;;;;;;;85.32;9.05;;;;;;;14.92;65.38;99103.16;2169707;81;20913;-80
2022/07/16 05:11:45;;;;;;;6.97;3.45;;;;;;;14.97;65.37;99098.34;2169912;81;20933;-80
2022/07/16 05:14:46;;;;;;;14.85;3.85;;;;;;;15.06;64.76;99100.07;2169842;81;20970;-81
2022/07/16 05:17:46;;;;;;;7.00;3.83;;;;;;;15.13;64.85;99108.81;2169551;82;20930;-79
2022/07/16 05:20:46;;;;;;;6.78;3.70;;;;;;;15.26;64.45;99109.22;2169558;81;21396;-79
2022/07/16 05:23:47;;;;;;;8.15;3.65;;;;;;;15.38;63.78;99107.88;2169762;81;21412;-80
2022/07/16 05:26:47;;;;;;;6.47;3.58;;;;;;;15.44;62.52;99118.81;2169909;81;20901;-80
2022/07/16 05:29:48;;;;;;;11.70;3.70;;;;;;;15.40;62.64;99111.81;2170643;81;20969;-80
2022/07/16 05:32:48;;;;;;;6.55;3.70;;;;;;;15.45;62.53;99108.72;2169714;81;20989;-80
2022/07/16 05:35:49;;;;;;;8.00;4.12;;;;;;;15.54;62.35;99107.38;2170159;81;20909;-82
2022/07/16 05:38:50;;;;;;;5.97;4.12;;;;;;;15.63;62.09;99103.45;2170284;81;20932;-80
2022/07/16 05:41:49;;;;;;;11.43;4.45;;;;;;;15.76;61.46;99097.25;2170196;81;21325;-81
2022/07/16 05:44:50;;;;;;;12.45;4.60;;;;;;;15.93;61.42;99102.42;2170114;81;20925;-80
2022/07/16 05:47:52;;;;;;;11.60;3.80;;;;;;;16.10;60.47;99097.06;2162427;82;20972;-80
2022/07/16 05:50:52;;;;;;;9.88;3.40;;;;;;;16.31;59.95;99092.09;2170928;81;20961;-80
2022/07/16 05:53:53;;;;;;;7.08;4.08;;;;;;;16.53;59.49;99086.67;2170684;81;20890;-80
2022/07/16 05:56:53;;;;;;;5.92;4.35;;;;;;;16.84;58.96;99078.53;2170561;81;20948;-80
2022/07/16 05:59:54;;;;;;;11.00;3.90;;;;;;;17.17;58.75;99083.45;2171632;82;21332;-79
2022/07/16 06:02:54;;;;;;;6.67;4.17;;;;;;;17.52;57.86;99080.88;2171623;81;21001;-79
2022/07/16 06:05:55;;;;;;;7.67;3.50;;;;;;;17.79;56.94;99077.92;2171301;81;20960;-79
2022/07/16 06:08:55;;;;;;;6.78;3.92;;;;;;;17.97;55.24;99079.88;2171490;81;21332;-79
2022/07/16 06:11:55;;;;;;;10.60;3.10;;;;;;;17.91;54.75;99079.52;2170975;81;20941;-79
2022/07/16 06:14:56;;;;;;;6.37;3.62;;;;;;;18.02;55.11;99076.28;2169845;81;20929;-79
2022/07/16 06:17:56;;;;;;;8.18;3.20;;;;;;;18.12;54.63;99076.57;2170633;82;20901;-79
2022/07/16 06:20:57;;;;;;;9.75;3.50;;;;;;;18.22;53.79;99075.14;2171291;81;20925;-81
2022/07/16 06:23:57;;;;;;;6.17;3.08;;;;;;;18.39;54.46;99071.78;2171772;81;20933;-81
2022/07/16 06:26:57;;;;;;;5.10;2.92;;;;;;;18.44;54.09;99080.52;2171670;81;20937;-80
2022/07/16 06:29:58;;;;;;;2.85;2.33;;;;;;;18.43;53.55;99075.67;2171477;82;20968;-81
2022/07/16 06:32:58;;;;;;;9.28;3.15;;;;;;;18.32;53.52;99086.00;2171567;81;20957;-81
2022/07/16 06:35:59;;;;;;;8.30;3.22;;;;;;;18.31;53.45;99082.48;2171830;81;20961;-80
2022/07/16 06:38:59;;;;;;;4.50;2.90;;;;;;;18.26;53.67;99076.84;2171617;81;20956;-80
2022/07/16 06:41:59;;;;;;;5.78;3.55;;;;;;;18.26;53.91;99081.67;2171320;82;20952;-81
2022/07/16 06:45:00;;;;;;;11.33;3.30;;;;;;;18.35;53.66;99078.89;2171213;81;20975;-81
2022/07/16 06:48:00;;;;;;;11.63;3.30;;;;;;;18.29;54.17;99078.98;2171511;81;20937;-81
2022/07/16 06:51:01;;;;;;;5.25;2.90;;;;;;;18.33;53.82;99072.76;2171093;81;20893;-81
2022/07/16 06:54:01;;;;;;;6.45;3.20;;;;;;;18.93;53.05;99073.09;2171442;81;20921;-81
2022/07/16 06:57:01;;;;;;;5.33;3.00;;;;;;;19.33;52.12;99064.85;2170471;81;20929;-82
2022/07/16 07:00:02;;;;;;;5.90;2.80;;;;;;;19.59;51.05;99068.33;2170696;81;20940;-82
2022/07/16 07:03:02;;;;;;;6.80;2.55;;;;;;;19.78;49.90;99069.25;2170352;82;20980;-79
2022/07/16 07:06:03;;;;;;;6.08;2.45;;;;;;;19.94;49.29;99066.27;2172417;81;21479;-80
2022/07/16 07:09:03;;;;;;;4.72;2.52;;;;;;;20.11;49.95;99057.93;2171528;81;20965;-80
2022/07/16 07:12:03;;;;;;;4.65;2.20;;;;;;;20.31;49.35;99069.39;2172440;82;20913;-81
2022/07/16 07:15:04;;;;;;;6.78;2.45;;;;;;;20.62;48.11;99068.22;2171436;82;21289;-81
2022/07/16 07:18:07;;;;;;;8.98;2.70;;;;;;;20.74;47.76;99061.73;2171383;81;20925;-82
2022/07/16 07:21:08;;;;;;;8.00;2.60;;;;;;;20.75;46.72;99056.38;2171379;81;21312;-81
2022/07/16 07:24:08;;;;;;;4.40;2.55;;;;;;;20.70;47.00;99052.98;2172021;81;20968;-81
2022/07/16 07:27:08;;;;;;;4.03;1.90;;;;;;;20.84;46.81;99052.66;2171531;81;20953;-81
2022/07/16 07:30:09;;;;;;;6.47;1.80;;;;;;;21.18;45.53;99048.63;2172332;81;20909;-83
2022/07/16 07:33:09;;;;;;;3.85;1.98;;;;;;;21.48;44.75;99043.81;2170719;81;20936;-80
2022/07/16 07:36:10;;;;;;;4.53;2.02;;;;;;;21.63;45.04;99038.51;2170606;81;20953;-80
2022/07/16 07:39:10;;;;;;;4.08;1.90;;;;;;;21.83;43.54;99043.25;2171166;81;20958;-80
2022/07/16 07:42:12;;;;;;;3.08;1.70;;;;;;;22.00;42.99;99038.75;2171987;81;21047;-80
2022/07/16 07:45:11;;;;;;;3.42;2.15;;;;;;;21.96;40.91;99034.44;2170868;82;20909;-81
2022/07/16 07:48:11;;;;;;;5.55;1.70;;;;;;;21.88;41.94;99029.36;2170816;81;20977;-81
2022/07/16 07:51:12;;;;;;;7.62;1.50;;;;;;;22.02;42.92;99029.80;2171729;81;20960;-79
2022/07/16 07:54:12;;;;;;;4.90;1.47;;;;;;;22.27;41.56;99030.38;2171392;82;20926;-82
2022/07/16 07:57:13;;;;;;;4.22;1.57;;;;;;;22.30;40.81;99019.19;2170782;82;20894;-82
2022/07/16 08:00:15;;;;;;;2.87;1.37;;;;;;;22.51;39.84;99022.92;2168204;82;20941;-81
2022/07/16 08:03:14;;;;;;;7.40;2.08;;;;;;;22.55;39.85;99013.95;2169562;81;20965;-80
2022/07/16 08:06:14;;;;;;;2.47;1.47;;;;;;;22.74;40.70;99010.20;2170957;81;21025;-82
2022/07/16 08:09:15;;;;;;;4.87;1.45;;;;;;;23.09;39.32;99010.31;2169458;81;20965;-79
2022/07/16 08:12:15;;;;;;;4.87;1.90;;;;;;;23.19;38.97;99007.72;2171135;81;21166;-80
2022/07/16 08:15:15;;;;;;;3.50;1.80;;;;;;;23.35;39.14;99012.88;2172590;82;20948;-80
2022/07/16 08:18:16;;;;;;;3.10;1.52;;;;;;;23.51;38.68;99013.21;2170588;81;20929;-81
2022/07/16 08:21:16;;;;;;;5.03;2.17;;;;;;;23.67;37.03;99003.73;2170880;81;20921;-80
2022/07/16 08:27:35;;;;;;;9.15;2.33;;;;;;;23.80;37.17;98999.66;2169542;82;20921;-81
2022/07/16 08:30:36;;;;;;;7.25;2.30;;;;;;;23.83;37.03;98996.01;2169934;81;20976;-80
2022/07/16 08:33:36;;;;;;;5.30;2.00;;;;;;;23.42;35.69;99003.77;2170070;81;20897;-81
2022/07/16 08:36:37;;;;;;;5.10;2.02;;;;;;;23.16;35.98;98991.85;2170415;81;20952;-81
2022/07/16 08:39:37;;;;;;;6.28;1.90;;;;;;;23.12;35.72;98989.77;2170628;81;20921;-81
2022/07/16 08:42:37;;;;;;;3.37;2.00;;;;;;;23.39;36.50;99002.98;2170696;81;21439;-81
2022/07/16 08:45:38;;;;;;;5.55;1.70;;;;;;;23.54;35.33;98996.23;2170572;81;20961;-80
2022/07/16 08:48:38;;;;;;;6.28;2.25;;;;;;;23.55;35.98;99000.67;2171501;82;20928;-82
2022/07/16 08:51:39;;;;;;;4.65;2.05;;;;;;;23.14;35.87;99001.69;2171001;81;20981;-81
2022/07/16 08:54:39;;;;;;;7.53;2.33;;;;;;;23.32;36.09;98994.35;2170592;81;21210;-81
2022/07/16 08:57:40;;;;;;;4.55;1.90;;;;;;;23.65;34.77;98996.73;2171056;81;20928;-81
2022/07/16 09:00:40;;;;;;;2.10;1.65;;;;;;;23.87;34.18;98994.09;2170747;81;20922;-80
2022/07/16 09:03:40;;;;;;;16.85;2.55;;;;;;;24.01;34.13;98993.94;2169244;81;20945;-81
2022/07/16 09:06:41;;;;;;;9.98;1.90;;;;;;;23.75;33.56;98999.44;2170742;81;21020;-81
2022/07/16 09:09:41;;;;;;;3.70;1.70;;;;;;;23.90;33.93;98988.17;2171320;81;20937;-81
2022/07/16 09:12:42;;;;;;;3.50;1.72;;;;;;;24.03;32.87;98989.41;2168874;81;21404;-81
2022/07/16 09:15:42;;;;;;;3.52;1.90;;;;;;;23.56;33.85;98995.29;2171045;81;20905;-80
2022/07/16 09:18:42;;;;;;;5.20;2.10;;;;;;;23.34;33.76;98997.83;2169196;81;20917;-80
2022/07/16 09:21:43;;;;;;;15.10;2.55;;;;;;;23.74;33.88;98981.72;2171360;82;20913;-81
2022/07/16 09:24:43;;;;;;;5.08;1.98;;;;;;;23.92;33.14;98988.11;2171418;81;20937;-81
2022/07/16 09:27:44;;;;;;;4.65;2.17;;;;;;;23.78;33.00;98983.33;2172028;81;20955;-81
2022/07/16 09:30:44;;;;;;;7.75;2.10;;;;;;;23.37;33.67;98991.52;2171743;81;20905;-83
2022/07/16 09:33:45;;;;;;;4.53;1.67;;;;;;;23.65;33.19;98976.74;2170749;81;20921;-82
2022/07/16 09:36:45;;;;;;;5.40;1.90;;;;;;;24.14;33.38;98972.98;2173027;81;20936;-82
2022/07/16 09:39:47;;;;;;;4.42;2.00;;;;;;;24.70;32.01;98983.12;2169363;81;20965;-81
2022/07/16 09:42:46;;;;;;;6.92;2.30;;;;;;;25.04;32.29;98972.73;2170995;81;20960;-81
2022/07/16 09:45:46;;;;;;;5.60;2.00;;;;;;;25.36;30.58;98969.95;2169428;81;21389;-81
2022/07/16 09:48:47;;;;;;;5.55;1.95;;;;;;;25.38;31.31;98976.09;2168551;82;20909;-80
2022/07/16 09:51:47;;;;;;;5.50;1.70;;;;;;;25.49;31.89;98978.27;2168792;81;20957;-80
2022/07/16 09:54:48;;;;;;;5.53;1.70;;;;;;;25.28;30.63;98982.80;2169813;81;20969;-81
2022/07/16 09:57:48;;;;;;;5.05;1.40;;;;;;;25.22;30.30;98975.06;2170968;82;20882;-81
2022/07/16 10:00:48;;;;;;;4.42;1.70;;;;;;;25.20;30.76;98978.75;2168196;82;20921;-80
2022/07/16 10:03:49;;;;;;;5.62;2.00;;;;;;;24.78;31.05;98975.19;2169780;81;20949;-80
2022/07/16 10:06:49;;;;;;;7.70;1.80;;;;;;;24.32;31.95;98976.28;2169460;81;20933;-80
2022/07/16 10:09:50;;;;;;;3.17;2.00;;;;;;;24.02;31.58;98972.14;2170261;81;20958;-80
2022/07/16 10:12:50;;;;;;;5.62;2.02;;;;;;;24.25;32.31;98965.87;2169397;81;21402;-79
2022/07/16 10:15:50;;;;;;;3.83;1.90;;;;;;;24.72;31.63;98970.11;2169735;81;20930;-82
2022/07/16 10:18:51;;;;;;;4.10;1.75;;;;;;;24.97;31.47;98980.61;2168777;81;20921;-81
2022/07/16 10:21:51;;;;;;;3.02;1.65;;;;;;;24.95;31.06;98978.91;2168833;82;21596;-81
2022/07/16 10:24:55;;;;;;;1.57;1.47;;;;;;;24.93;31.30;98968.30;2168632;81;20901;-80
2022/07/16 10:27:55;;;;;;;;;;;;;;;25.07;31.51;98961.04;2172330;81;20882;-80
2022/07/16 10:30:55;;;;;;;3.17;1.77;;;;;;;25.39;31.30;98956.45;2170879;81;20123;-80
2022/07/16 10:33:56;;;;;;;3.02;1.80;;;;;;;25.29;30.61;98959.63;2169584;81;21333;-81
2022/07/16 10:36:56;;;;;;;3.05;1.80;;;;;;;24.76;31.15;98950.36;2169766;81;20952;-81
2022/07/16 10:39:57;;;;;;;2.33;1.60;;;;;;;24.55;31.80;98947.76;2170267;82;20956;-82
2022/07/16 10:42:57;;;;;;;7.40;1.80;;;;;;;24.90;31.72;98951.55;2170192;81;20957;-82
2022/07/16 10:45:58;;;;;;;3.87;1.98;;;;;;;24.68;31.72;98936.48;2171442;81;21332;-81
2022/07/16 10:48:58;;;;;;;2.70;1.90;;;;;;;24.71;31.77;98943.02;2169922;81;20921;-81
2022/07/16 10:51:58;;;;;;;3.65;1.50;;;;;;;25.04;32.25;98937.14;2171371;81;20945;-81
2022/07/16 10:54:59;;;;;;;4.17;2.00;;;;;;;25.41;30.65;98937.68;2169281;82;20933;-81
2022/07/16 10:57:59;;;;;;;2.30;1.82;;;;;;;25.78;30.48;98932.81;2170439;81;20901;-81
2022/07/16 11:00:59;;;;;;;3.90;2.08;;;;;;;25.94;29.34;98931.59;2169762;81;20906;-81
2022/07/16 11:04:00;;;;;;;2.08;1.62;;;;;;;25.67;30.11;98923.11;2171410;81;20942;-81
2022/07/16 11:07:00;;;;;;;4.97;1.70;;;;;;;25.55;29.73;98921.86;2170958;81;21403;-81
2022/07/16 11:10:01;;;;;;;3.00;1.50;;;;;;;25.32;30.23;98912.26;2170083;81;20913;-83
2022/07/16 11:13:01;;;;;;;5.33;1.72;;;;;;;25.61;29.84;98911.34;2168891;82;21036;-81
2022/07/16 11:16:01;;;;;;;1.95;1.52;;;;;;;26.01;30.19;98909.85;2169105;81;20886;-81
2022/07/16 11:19:02;;;;;;;2.50;1.70;;;;;;;26.54;29.15;98900.93;2169581;81;20918;-82
2022/07/16 11:22:02;;;;;;;4.30;1.30;;;;;;;26.89;28.32;98904.45;2171497;81;20952;-80
2022/07/16 11:25:03;;;;;;;4.47;1.87;;;;;;;26.70;28.33;98889.41;2169680;81;20890;-81
2022/07/16 11:28:03;;;;;;;4.62;1.60;;;;;;;26.24;29.05;98904.68;2170135;81;20929;-80
2022/07/16 11:31:04;;;;;;;1.90;1.57;;;;;;;25.82;28.62;98895.63;2171683;81;20943;-81
2022/07/16 11:34:04;;;;;;;3.65;1.70;;;;;;;26.06;29.90;98894.91;2172450;81;21277;-81
2022/07/16 11:37:04;;;;;;;2.27;1.67;;;;;;;26.16;29.71;98893.50;2169890;81;20965;-82
2022/07/16 11:40:05;;;;;;;3.45;1.77;;;;;;;25.60;29.81;98897.58;2169606;82;20956;-82
2022/07/16 11:43:05;;;;;;;11.18;3.47;;;;;;;25.06;30.89;98891.20;2170701;81;20965;-82
2022/07/16 11:46:06;;;;;;;5.05;2.00;;;;;;;24.59;31.20;98899.98;2169717;81;21407;-81
2022/07/16 11:49:06;;;;;;;4.90;1.98;;;;;;;24.18;31.80;98907.05;2171045;81;21142;-81
2022/07/16 11:52:06;;;;;;;4.83;1.62;;;;;;;23.92;32.71;98901.00;2170101;81;20992;-81
2022/07/16 11:55:07;;;;;;;7.92;1.67;;;;;;;24.44;32.39;98905.53;2170310;81;20913;-82
2022/07/16 11:58:07;;;;;;;5.35;1.87;;;;;;;24.68;32.11;98900.45;2170615;81;20961;-81
2022/07/16 12:01:08;;;;;;;7.83;1.60;;;;;;;25.06;32.09;98900.55;2171697;81;20935;-81
2022/07/16 12:04:08;;;;;;;3.37;1.52;;;;;;;24.85;31.71;98897.02;2172417;81;20901;-82
2022/07/16 12:07:08;;;;;;;3.17;1.75;;;;;;;24.67;31.97;98896.52;2170606;81;21300;-82
2022/07/16 12:10:09;;;;;;;8.38;1.85;;;;;;;24.49;31.46;98894.19;2170446;81;20926;-81
2022/07/16 12:13:09;;;;;;;5.67;1.50;;;;;;;24.35;32.38;98898.80;2171214;81;20992;-82
2022/07/16 12:16:10;;;;;;;2.98;1.57;;;;;;;24.49;31.97;98902.20;2172282;82;20917;-82
2022/07/16 12:19:11;;;;;;;5.60;1.50;;;;;;;24.49;31.80;98899.53;2171449;81;21336;-81
2022/07/16 12:22:10;;;;;;;3.85;1.75;;;;;;;24.58;32.04;98892.92;2170496;81;20949;-82
2022/07/16 12:25:11;;;;;;;4.72;1.85;;;;;;;24.93;32.08;98891.33;2172550;81;20936;-82
2022/07/16 12:28:11;;;;;;;2.47;1.50;;;;;;;25.15;31.76;98887.27;2171911;81;21404;-81
2022/07/16 12:31:12;;;;;;;2.05;1.40;;;;;;;25.11;31.73;98891.86;2171506;81;20917;-82
2022/07/16 12:34:12;;;;;;;3.87;1.45;;;;;;;24.90;32.40;98889.67;2171573;81;20946;-82
2022/07/16 12:37:12;;;;;;;4.80;1.80;;;;;;;24.78;33.08;98891.56;2171435;81;21288;-81
2022/07/16 12:40:13;;;;;;;2.83;1.70;;;;;;;24.71;32.32;98892.30;2172544;81;20914;-82
2022/07/16 12:43:13;;;;;;;5.78;1.80;;;;;;;24.77;32.46;98884.48;2171044;81;21020;-82
2022/07/16 12:46:14;;;;;;;5.33;1.90;;;;;;;25.02;32.40;98889.61;2171557;81;20913;-82
2022/07/16 12:49:14;;;;;;;1.55;1.42;;;;;;;25.15;32.67;98878.79;2172165;81;20913;-81
2022/07/16 12:52:14;;;;;;;1.40;1.30;;;;;;;25.65;31.51;98875.50;2171946;81;20866;-82
2022/07/16 12:58:49;;;;;;;2.35;1.55;;;;;;;25.83;30.72;98873.30;2172391;82;20905;-80
2022/07/16 13:01:49;;;;;;;2.77;1.55;;;;;;;25.89;30.34;98870.31;2173219;81;20901;-80
2022/07/16 13:04:49;;;;;;;3.87;1.57;;;;;;;26.05;29.96;98880.27;2171490;81;20902;-82
2022/07/16 13:07:50;;;;;;;2.95;1.50;;;;;;;25.97;29.98;98866.78;2170207;81;20992;-81
2022/07/16 13:10:50;;;;;;;2.12;1.55;;;;;;;25.89;30.67;98870.31;2170557;81;20949;-81
2022/07/16 13:13:52;;;;;;;5.85;1.82;;;;;;;25.74;30.65;98860.38;2172569;82;21003;-82
2022/07/16 13:16:53;;;;;;;2.27;1.45;;;;;;;25.45;30.97;98855.56;2171652;81;20909;-81
2022/07/16 13:19:53;;;;;;;4.17;1.90;;;;;;;25.11;31.18;98858.47;2171725;81;20925;-81
2022/07/16 13:22:53;;;;;;;2.47;1.70;;;;;;;24.63;31.88;98865.56;2171730;82;20933;-82
2022/07/16 13:25:53;;;;;;;4.25;1.87;;;;;;;24.19;31.18;98862.11;2171762;81;20950;-83
2022/07/16 13:28:54;;;;;;;5.50;2.10;;;;;;;23.83;32.77;98858.73;2171642;82;21301;-82
2022/07/16 13:31:54;;;;;;;5.12;2.60;;;;;;;23.54;33.27;98853.23;2172719;81;20890;-83
2022/07/16 13:34:54;;;;;;;3.85;1.80;;;;;;;23.13;33.70;98858.84;2172620;81;20929;-82
2022/07/16 13:37:55;;;;;;;3.75;2.10;;;;;;;22.71;34.35;98865.29;2170696;81;20989;-80
2022/07/16 13:40:55;;;;;;;4.87;1.65;;;;;;;22.42;34.54;98861.00;2170824;81;21359;-81
2022/07/16 13:43:56;;;;;;;5.85;2.75;;;;;;;22.23;35.24;98872.28;2170407;81;20992;-83
2022/07/16 13:46:56;;;;;;;6.47;1.80;;;;;;;22.07;36.56;98887.02;2171809;82;20942;-81
2022/07/16 13:49:56;;;;;;;2.17;1.65;;;;;;;21.90;36.79;98900.84;2170710;81;20922;-81
2022/07/16 13:52:57;;;;;;;3.15;1.98;;;;;;;21.76;37.36;98894.24;2170619;81;20929;-81
2022/07/16 13:55:57;;;;;;;4.65;2.20;;;;;;;21.55;37.79;98900.62;2172640;81;20914;-80
2022/07/16 13:58:58;;;;;;;3.25;1.70;;;;;;;21.40;38.38;98894.46;2170989;81;20906;-80
2022/07/16 14:01:58;;;;;;;2.52;1.57;;;;;;;21.40;38.69;98890.94;2170668;81;21281;-81
2022/07/16 14:04:58;;;;;;;4.65;2.05;;;;;;;21.29;38.44;98892.14;2171165;81;20960;-81
2022/07/16 14:07:59;;;;;;;5.53;2.10;;;;;;;21.04;39.11;98890.23;2171591;81;20964;-81
2022/07/16 14:10:59;;;;;;;2.30;1.92;;;;;;;20.87;39.82;98892.06;2172081;81;20905;-80
2022/07/16 14:14:00;;;;;;;2.60;1.98;;;;;;;20.72;40.42;98889.81;2172378;81;21041;-80
2022/07/16 14:17:00;;;;;;;3.42;1.60;;;;;;;20.53;41.07;98892.98;2172658;81;20945;-80
2022/07/16 14:20:00;;;;;;;4.60;1.75;;;;;;;20.35;41.75;98903.59;2170868;81;20887;-81
2022/07/16 14:23:01;;;;;;;4.37;1.80;;;;;;;20.11;43.57;98925.44;2171122;82;20976;-81